Time;durP1;ratioP1;P1;durP2;ratioP2;P2;SDS_P1;SDS_P2;PMS_P1;PMS_P2;Temp;Humidity;BMP_temperature;BMP_pressure;BME280_temperature;BME280_humidity;BME280_pressure;Samples;Min_cycle;Max_cycle;Signal;HPM_P1;HPM_P2
2022/08/02 00:02:53;;;;;;;12.57;8.70;;;;;;;;;;10141212;23;20029;-81
2022/08/02 00:06:57;;;;;;;9.55;7.93;;;;;;;;;;10141980;23;20021;-81
2022/08/02 00:11:00;;;;;;;10.75;8.75;;;;;;;;;;10141485;23;20476;-81
2022/08/02 00:15:05;;;;;;;9.35;7.30;;;;;;;;;;10140968;23;20105;-81
2022/08/02 00:19:08;;;;;;;10.85;8.52;;;;;;;;;;10141357;23;20022;-82
2022/08/02 00:23:12;;;;;;;9.25;7.68;;;;;;;;;;10141430;23;20073;-82
2022/08/02 00:27:17;;;;;;;9.68;6.90;;;;;;;;;;10140122;23;20026;-81
2022/08/02 00:31:21;;;;;;;10.85;7.38;;;;;;;;;;10155564;23;20022;-81
2022/08/02 00:35:24;;;;;;;12.52;8.60;;;;;;;;;;10141773;23;20017;-81
2022/08/02 00:39:28;;;;;;;12.95;9.07;;;;;;;;;;10141863;23;20018;-80
2022/08/02 00:43:31;;;;;;;12.13;8.40;;;;;;;;;;10141615;23;20528;-81
2022/08/02 00:47:34;;;;;;;19.08;9.18;;;;;;;;;;10140267;23;20021;-81
2022/08/02 00:51:38;;;;;;;12.85;8.65;;;;;;;;;;10141235;23;20022;-81
2022/08/02 00:55:42;;;;;;;11.65;7.85;;;;;;;;;;10139407;23;20018;-81
2022/08/02 00:59:44;;;;;;;13.30;9.45;;;;;;;;;;10140444;23;20574;-81
2022/08/02 01:03:47;;;;;;;9.93;7.95;;;;;;;;;;10138847;23;20018;-81
2022/08/02 01:07:50;;;;;;;10.52;8.88;;;;;;;;;;10140124;23;20018;-81
2022/08/02 01:11:54;;;;;;;10.10;8.73;;;;;;;;;;10139887;23;20021;-81
2022/08/02 01:16:04;;;;;;;11.50;9.18;;;;;;;;;;10140296;23;20026;-81
2022/08/02 01:20:19;;;;;;;11.43;9.18;;;;;;;;;;10138980;23;20018;-81
2022/08/02 01:24:34;;;;;;;13.63;9.65;;;;;;;;;;10155695;23;20481;-81
2022/08/02 01:28:41;;;;;;;12.18;9.60;;;;;;;;;;10148831;23;20018;-82
2022/08/02 01:32:50;;;;;;;13.50;9.57;;;;;;;;;;10140517;23;20038;-81
2022/08/02 01:36:59;;;;;;;11.52;9.07;;;;;;;;;;10139846;23;20068;-83
2022/08/02 01:41:03;;;;;;;12.73;9.30;;;;;;;;;;10155424;23;20021;-81
2022/08/02 01:45:09;;;;;;;14.60;9.82;;;;;;;;;;10140118;23;20026;-81
2022/08/02 01:49:17;;;;;;;12.30;9.18;;;;;;;;;;10140317;23;20021;-81
2022/08/02 01:53:24;;;;;;;11.65;7.35;;;;;;;;;;10155702;23;20074;-81
2022/08/02 01:57:28;;;;;;;10.65;8.05;;;;;;;;;;10155817;23;20022;-81
2022/08/02 02:01:36;;;;;;;12.70;7.70;;;;;;;;;;10140333;23;20022;-81
2022/08/02 02:05:40;;;;;;;11.82;9.90;;;;;;;;;;10156453;23;20351;-81
2022/08/02 02:09:44;;;;;;;16.75;10.63;;;;;;;;;;10140142;23;20056;-81
2022/08/02 02:13:49;;;;;;;10.02;8.15;;;;;;;;;;10140983;23;20022;-85
2022/08/02 02:17:55;;;;;;;10.93;8.13;;;;;;;;;;10140868;23;20354;-82
2022/08/02 02:21:57;;;;;;;12.68;9.98;;;;;;;;;;10156472;23;20021;-83
2022/08/02 02:26:01;;;;;;;12.90;9.75;;;;;;;;;;10141266;23;20034;-83
2022/08/02 02:30:05;;;;;;;11.63;9.13;;;;;;;;;;10143426;23;20026;-87
2022/08/02 02:34:14;;;;;;;14.68;10.73;;;;;;;;;;10143941;23;20025;-83
2022/08/02 02:38:20;;;;;;;14.40;10.25;;;;;;;;;;10144678;23;20443;-83
2022/08/02 02:42:27;;;;;;;15.23;10.68;;;;;;;;;;10144279;23;20346;-82
2022/08/02 02:46:31;;;;;;;18.48;14.63;;;;;;;;;;10160096;23;20018;-87
2022/08/02 02:50:36;;;;;;;14.27;12.00;;;;;;;;;;10143525;23;20028;-84
2022/08/02 02:54:39;;;;;;;12.20;9.13;;;;;;;;;;10160025;23;20121;-82
2022/08/02 02:58:43;;;;;;;15.55;13.32;;;;;;;;;;10143463;23;20025;-84
2022/08/02 03:02:47;;;;;;;18.60;12.27;;;;;;;;;;10143726;23;20508;-87
2022/08/02 03:06:51;;;;;;;17.45;12.77;;;;;;;;;;10143255;23;20018;-89
2022/08/02 03:10:54;;;;;;;19.70;14.32;;;;;;;;;;10143412;23;20349;-81
2022/08/02 03:14:58;;;;;;;16.98;13.55;;;;;;;;;;10143162;23;20018;-84
2022/08/02 03:19:03;;;;;;;13.88;10.93;;;;;;;;;;10143583;23;20021;-87
2022/08/02 03:23:07;;;;;;;15.20;12.18;;;;;;;;;;10142870;23;20026;-82
2022/08/02 03:27:10;;;;;;;16.73;12.13;;;;;;;;;;10142967;23;20433;-82
2022/08/02 03:31:12;;;;;;;16.70;10.73;;;;;;;;;;10159143;23;20077;-83
2022/08/02 03:35:18;;;;;;;11.88;9.73;;;;;;;;;;10143219;23;20323;-82
2022/08/02 03:39:23;;;;;;;15.55;9.63;;;;;;;;;;10159284;23;20450;-83
2022/08/02 03:43:26;;;;;;;12.18;10.13;;;;;;;;;;10142752;23;20410;-84
2022/08/02 03:47:29;;;;;;;11.43;9.05;;;;;;;;;;10142965;23;20057;-81
2022/08/02 03:51:32;;;;;;;12.00;10.00;;;;;;;;;;10142157;23;20022;-87
2022/08/02 03:55:40;;;;;;;14.40;10.65;;;;;;;;;;10142644;23;20018;-82
2022/08/02 03:59:44;;;;;;;14.20;10.38;;;;;;;;;;10143058;23;20021;-87
2022/08/02 04:03:46;;;;;;;12.95;11.27;;;;;;;;;;10142087;23;20025;-84
2022/08/02 04:07:49;;;;;;;13.40;10.20;;;;;;;;;;10142256;23;20089;-81
2022/08/02 04:11:53;;;;;;;16.95;12.52;;;;;;;;;;10141670;23;20018;-81
2022/08/02 04:15:59;;;;;;;16.67;10.52;;;;;;;;;;10142357;23;20467;-84
2022/08/02 04:20:06;;;;;;;19.23;10.23;;;;;;;;;;10142565;23;20014;-86
2022/08/02 04:24:11;;;;;;;15.55;12.25;;;;;;;;;;10142009;23;20028;-85
2022/08/02 04:28:17;;;;;;;11.90;8.82;;;;;;;;;;10141788;23;20022;-82
2022/08/02 04:32:21;;;;;;;18.38;13.27;;;;;;;;;;10158257;23;20029;-87
2022/08/02 04:36:23;;;;;;;16.13;13.20;;;;;;;;;;10141780;23;20025;-85
2022/08/02 04:40:26;;;;;;;18.35;13.85;;;;;;;;;;10141937;23;20022;-82
2022/08/02 04:44:30;;;;;;;23.52;17.08;;;;;;;;;;10141725;23;20017;-84
2022/08/02 04:48:33;;;;;;;29.80;17.90;;;;;;;;;;10141411;23;20101;-83
2022/08/02 04:52:35;;;;;;;27.05;17.30;;;;;;;;;;10141323;23;20343;-84
2022/08/02 04:56:38;;;;;;;26.85;18.30;;;;;;;;;;10141911;23;20014;-86
2022/08/02 05:00:43;;;;;;;27.48;18.23;;;;;;;;;;10141897;23;20383;-90
2022/08/02 05:04:45;;;;;;;27.92;18.90;;;;;;;;;;10141381;23;20145;-83
2022/08/02 05:08:48;;;;;;;28.80;19.10;;;;;;;;;;10141357;23;20018;-88
2022/08/02 05:12:51;;;;;;;30.20;19.70;;;;;;;;;;10140866;23;20045;-83
2022/08/02 05:16:55;;;;;;;29.55;19.02;;;;;;;;;;10140991;23;20018;-87
2022/08/02 05:20:57;;;;;;;28.50;19.15;;;;;;;;;;10090615;23;20049;-81
2022/08/02 05:25:01;;;;;;;26.50;19.25;;;;;;;;;;10117241;23;20104;-84
2022/08/02 05:29:05;;;;;;;29.42;19.88;;;;;;;;;;10129355;23;20018;-82
2022/08/02 05:33:11;;;;;;;28.92;19.60;;;;;;;;;;10127175;23;20018;-81
2022/08/02 05:37:17;;;;;;;29.30;20.48;;;;;;;;;;10140731;23;20022;-81
2022/08/02 05:41:23;;;;;;;28.98;19.70;;;;;;;;;;10139852;23;20066;-82
2022/08/02 05:45:34;;;;;;;28.63;18.30;;;;;;;;;;10146789;23;20370;-82
2022/08/02 05:49:45;;;;;;;32.67;20.30;;;;;;;;;;10140076;23;20010;-82
2022/08/02 05:53:54;;;;;;;29.95;17.73;;;;;;;;;;10140314;23;20024;-82
2022/08/02 05:58:08;;;;;;;30.17;19.73;;;;;;;;;;10142585;23;20052;-82
2022/08/02 06:02:31;;;;;;;27.33;18.98;;;;;;;;;;10139257;23;20022;-82
2022/08/02 06:07:07;;;;;;;33.03;20.88;;;;;;;;;;10128678;23;20298;-82
2022/08/02 06:11:16;;;;;;;48.10;25.52;;;;;;;;;;10127314;23;20026;-82
2022/08/02 06:15:24;;;;;;;47.25;26.30;;;;;;;;;;10140074;23;20501;-82
2022/08/02 06:19:32;;;;;;;58.22;28.25;;;;;;;;;;10139466;23;20018;-86
2022/08/02 06:23:41;;;;;;;38.88;23.77;;;;;;;;;;10138771;23;20451;-83
2022/08/02 06:27:44;;;;;;;28.77;19.08;;;;;;;;;;10153179;23;20021;-86
2022/08/02 06:31:50;;;;;;;25.73;19.08;;;;;;;;;;10141087;23;20022;-94
2022/08/02 06:36:08;;;;;;;19.83;14.63;;;;;;;;;;10156505;23;20057;-85
2022/08/02 06:40:38;;;;;;;24.73;17.85;;;;;;;;;;10139456;23;20013;-82
2022/08/02 06:44:52;;;;;;;25.73;19.35;;;;;;;;;;10132850;23;20029;-82
2022/08/02 06:48:58;;;;;;;23.27;16.45;;;;;;;;;;10134876;23;20018;-82
2022/08/02 06:53:03;;;;;;;24.20;17.38;;;;;;;;;;10131910;23;20028;-82
2022/08/02 06:57:11;;;;;;;24.45;18.75;;;;;;;;;;10147993;23;20033;-82
2022/08/02 07:01:21;;;;;;;24.60;17.75;;;;;;;;;;10133325;23;20097;-81
2022/08/02 07:05:24;;;;;;;27.60;19.58;;;;;;;;;;10149040;23;20029;-81
2022/08/02 07:09:28;;;;;;;25.13;18.65;;;;;;;;;;10133453;23;20478;-83
2022/08/02 07:13:33;;;;;;;25.55;18.77;;;;;;;;;;10134714;23;20617;-82
2022/08/02 07:17:37;;;;;;;28.25;19.30;;;;;;;;;;10135117;23;20014;-82
2022/08/02 07:21:40;;;;;;;23.52;16.17;;;;;;;;;;10136708;23;20060;-87
2022/08/02 07:25:44;;;;;;;25.05;16.65;;;;;;;;;;10136752;23;20459;-82
2022/08/02 07:29:49;;;;;;;26.00;18.92;;;;;;;;;;10135019;23;20030;-81
2022/08/02 07:34:01;;;;;;;26.88;19.33;;;;;;;;;;10151833;23;20401;-82
2022/08/02 07:38:08;;;;;;;24.88;18.85;;;;;;;;;;10152992;23;20097;-83
2022/08/02 07:42:11;;;;;;;26.35;17.98;;;;;;;;;;10137237;23;20435;-82
2022/08/02 07:46:16;;;;;;;27.52;20.30;;;;;;;;;;10136277;23;20552;-86
2022/08/02 07:50:20;;;;;;;31.02;21.65;;;;;;;;;;10136089;23;20025;-83
2022/08/02 07:54:23;;;;;;;30.80;19.63;;;;;;;;;;10139478;23;20351;-86
2022/08/02 07:58:26;;;;;;;29.50;21.77;;;;;;;;;;10139614;23;20022;-90
2022/08/02 08:02:31;;;;;;;26.88;18.90;;;;;;;;;;10138951;23;20022;-90
2022/08/02 08:06:39;;;;;;;27.42;19.67;;;;;;;;;;10154330;23;20434;-85
2022/08/02 08:10:42;;;;;;;27.50;19.35;;;;;;;;;;10154017;23;20021;-84
2022/08/02 08:14:49;;;;;;;27.95;20.77;;;;;;;;;;10136773;23;20028;-86
2022/08/02 08:18:54;;;;;;;26.10;17.58;;;;;;;;;;10153391;23;20327;-82
2022/08/02 08:22:58;;;;;;;22.33;16.13;;;;;;;;;;10153123;23;20022;-85
2022/08/02 08:27:21;;;;;;;21.30;14.85;;;;;;;;;;10136675;23;20021;-82
2022/08/02 08:31:41;;;;;;;26.77;19.45;;;;;;;;;;10137353;23;20018;-81
2022/08/02 08:35:46;;;;;;;19.67;15.43;;;;;;;;;;10137748;23;20358;-83
2022/08/02 08:39:50;;;;;;;26.15;18.60;;;;;;;;;;10136476;23;20018;-83
2022/08/02 08:43:52;;;;;;;26.67;17.90;;;;;;;;;;10136693;23;20122;-84
2022/08/02 08:48:02;;;;;;;25.63;18.50;;;;;;;;;;10137505;23;20025;-85
2022/08/02 08:52:07;;;;;;;19.88;12.63;;;;;;;;;;10153057;23;20592;-82
2022/08/02 08:56:12;;;;;;;27.45;19.77;;;;;;;;;;10136950;23;20092;-85
2022/08/02 09:00:16;;;;;;;26.70;18.45;;;;;;;;;;10137055;23;20065;-84
2022/08/02 09:04:20;;;;;;;26.95;19.13;;;;;;;;;;10136852;23;20018;-84
2022/08/02 09:08:25;;;;;;;26.30;19.80;;;;;;;;;;10137281;23;20024;-83
2022/08/02 09:12:28;;;;;;;26.42;18.35;;;;;;;;;;10136577;23;20077;-85
2022/08/02 09:16:34;;;;;;;27.48;19.33;;;;;;;;;;10136594;23;20023;-82
2022/08/02 09:20:56;;;;;;;27.58;19.35;;;;;;;;;;10152371;23;20025;-87
2022/08/02 09:25:04;;;;;;;29.52;20.55;;;;;;;;;;10152093;23;20014;-84
2022/08/02 09:29:25;;;;;;;28.83;20.67;;;;;;;;;;10135970;23;20033;-83
2022/08/02 09:33:29;;;;;;;30.73;21.05;;;;;;;;;;10135953;23;20021;-90
2022/08/02 09:37:36;;;;;;;28.17;19.85;;;;;;;;;;10134811;23;20029;-85
2022/08/02 09:41:46;;;;;;;33.45;20.85;;;;;;;;;;10152262;23;20080;-84
2022/08/02 09:45:50;;;;;;;;;;;;;;;;;;10135613;23;20025;-85
2022/08/02 09:49:55;;;;;;;27.23;19.95;;;;;;;;;;10137285;23;20251;-93
2022/08/02 09:54:02;;;;;;;27.85;20.08;;;;;;;;;;10135509;23;20077;-85
2022/08/02 09:58:20;;;;;;;25.92;19.55;;;;;;;;;;10151498;23;20354;-82
2022/08/02 10:02:24;;;;;;;32.97;20.15;;;;;;;;;;10151164;23;20022;-82
2022/08/02 10:06:28;;;;;;;22.00;17.08;;;;;;;;;;10133827;23;20029;-85
2022/08/02 10:10:32;;;;;;;29.58;19.95;;;;;;;;;;10133124;23;20033;-82
2022/08/02 10:14:37;;;;;;;25.65;18.75;;;;;;;;;;10134741;23;20097;-83
2022/08/02 10:18:41;;;;;;;22.55;17.15;;;;;;;;;;10133291;23;20022;-82
2022/08/02 10:22:49;;;;;;;23.88;17.17;;;;;;;;;;10134776;23;20064;-81
2022/08/02 10:26:55;;;;;;;21.75;16.77;;;;;;;;;;10134728;23;20512;-82
2022/08/02 10:31:01;;;;;;;22.25;17.52;;;;;;;;;;10134412;23;20049;-82
2022/08/02 10:35:10;;;;;;;21.50;16.75;;;;;;;;;;10134562;23;20014;-81
2022/08/02 10:39:14;;;;;;;22.25;16.67;;;;;;;;;;10151292;23;20049;-82
2022/08/02 10:43:48;;;;;;;23.60;15.32;;;;;;;;;;10134812;23;20014;-81
2022/08/02 10:48:04;;;;;;;18.88;15.20;;;;;;;;;;10135657;23;20097;-85
2022/08/02 10:52:10;;;;;;;20.30;16.33;;;;;;;;;;10137195;23;20209;-82
2022/08/02 10:57:00;;;;;;;17.13;14.40;;;;;;;;;;10154092;23;20026;-81
2022/08/02 11:01:29;;;;;;;;;;;;;;;;;;10138038;23;20462;-83
2022/08/02 11:05:38;;;;;;;21.70;16.63;;;;;;;;;;10135411;23;19924;-81
2022/08/02 11:09:47;;;;;;;27.33;21.13;;;;;;;;;;10152287;23;20365;-81
2022/08/02 11:14:05;;;;;;;28.63;19.55;;;;;;;;;;10135971;23;20052;-82
2022/08/02 11:18:11;;;;;;;27.65;20.10;;;;;;;;;;10135734;23;20018;-81
2022/08/02 11:22:21;;;;;;;27.35;19.15;;;;;;;;;;10134470;23;20021;-81
2022/08/02 11:26:49;;;;;;;;;;;;;;;;;;10136692;23;20074;-82
2022/08/02 11:30:58;;;;;;;27.83;21.17;;;;;;;;;;10133175;23;19955;-82
2022/08/02 11:35:04;;;;;;;27.52;21.08;;;;;;;;;;10151430;23;20021;-82
2022/08/02 11:44:00;;;;;;;28.23;20.58;;;;;;;;;;10084927;23;19925;-82
2022/08/02 11:48:05;;;;;;;28.08;20.10;;;;;;;;;;10085809;23;20029;-82
2022/08/02 11:52:10;;;;;;;30.00;19.50;;;;;;;;;;10088334;23;20019;-81
2022/08/02 11:56:14;;;;;;;33.28;21.70;;;;;;;;;;10087731;23;20090;-81
2022/08/02 12:00:20;;;;;;;28.10;21.48;;;;;;;;;;10086482;23;20035;-82
2022/08/02 12:04:23;;;;;;;28.23;20.80;;;;;;;;;;10087472;23;20014;-81
2022/08/02 12:08:27;;;;;;;25.08;19.95;;;;;;;;;;10087069;23;20018;-82
2022/08/02 12:12:31;;;;;;;28.58;22.08;;;;;;;;;;10084262;23;20027;-82
2022/08/02 12:21:21;;;;;;;18.38;15.57;;;;;;;;;;10103339;23;20044;-81
2022/08/02 12:25:50;;;;;;;19.40;16.88;;;;;;;;;;10085614;23;20128;-81
2022/08/02 12:30:27;;;;;;;18.70;16.58;;;;;;;;;;10087262;23;20053;-82
2022/08/02 12:34:45;;;;;;;17.23;14.80;;;;;;;;;;10085630;23;20118;-82
2022/08/02 12:38:53;;;;;;;19.85;15.70;;;;;;;;;;10100405;23;20702;-81
2022/08/02 12:42:59;;;;;;;18.33;14.88;;;;;;;;;;10086379;23;20022;-81
2022/08/02 12:47:06;;;;;;;17.63;15.60;;;;;;;;;;10086378;23;20029;-81
2022/08/02 12:51:29;;;;;;;18.95;14.20;;;;;;;;;;10102996;23;20022;-81
2022/08/02 12:55:34;;;;;;;17.40;14.68;;;;;;;;;;10088067;23;20022;-82
2022/08/02 12:59:40;;;;;;;16.48;14.10;;;;;;;;;;10085316;23;20018;-81
2022/08/02 13:03:44;;;;;;;17.70;14.43;;;;;;;;;;10104063;23;20023;-82
2022/08/02 13:07:50;;;;;;;17.98;13.63;;;;;;;;;;10087579;23;20514;-81
2022/08/02 13:11:52;;;;;;;22.98;14.55;;;;;;;;;;10086643;23;20022;-82
2022/08/02 13:15:56;;;;;;;21.02;14.13;;;;;;;;;;10086266;23;20018;-83
2022/08/02 13:19:58;;;;;;;17.77;13.73;;;;;;;;;;10086983;23;20022;-83
2022/08/02 13:24:04;;;;;;;17.75;13.57;;;;;;;;;;10087379;23;20029;-83
2022/08/02 13:28:09;;;;;;;16.38;12.77;;;;;;;;;;10086191;23;20033;-81
2022/08/02 13:32:14;;;;;;;16.65;10.73;;;;;;;;;;10085368;23;20399;-81
2022/08/02 13:36:18;;;;;;;11.63;10.20;;;;;;;;;;10103279;23;20026;-82
2022/08/02 13:40:33;;;;;;;12.35;10.20;;;;;;;;;;10086450;23;20439;-81
2022/08/02 13:45:27;;;;;;;13.43;11.98;;;;;;;;;;10102190;23;20049;-81
2022/08/02 13:49:54;;;;;;;;;;;;;;;;;;10102105;23;20049;-82
2022/08/02 13:59:35;;;;;;;16.02;11.38;;;;;;;;;;10101120;23;20525;-90
2022/08/02 14:03:38;;;;;;;13.45;11.32;;;;;;;;;;10100909;23;20038;-90
2022/08/02 14:07:43;;;;;;;14.40;12.43;;;;;;;;;;10092774;23;20030;-86
2022/08/02 14:11:52;;;;;;;14.55;11.98;;;;;;;;;;10091946;23;20022;-88
2022/08/02 14:16:30;;;;;;;15.13;12.68;;;;;;;;;;10096477;23;20046;-89
2022/08/02 15:07:37;;;;;;;12.15;7.10;;;;;;;;;;10090950;23;20073;-87
2022/08/02 15:12:12;;;;;;;9.80;8.13;;;;;;;;;;10089716;23;20474;-87
2022/08/02 15:16:47;;;;;;;10.23;9.23;;;;;;;;;;10076651;23;20061;-88
2022/08/02 15:21:40;;;;;;;9.95;8.70;;;;;;;;;;10083958;23;20022;-89
2022/08/02 15:30:53;;;;;;;12.35;10.15;;;;;;;;;;10107631;23;20042;-90
2022/08/02 15:39:55;;;;;;;11.90;10.60;;;;;;;;;;10044218;23;20407;-87
2022/08/02 15:44:34;;;;;;;13.68;10.52;;;;;;;;;;10098461;23;20022;-88
2022/08/02 15:49:06;;;;;;;12.40;9.73;;;;;;;;;;10096478;23;20019;-89
2022/08/02 16:03:04;;;;;;;11.65;9.20;;;;;;;;;;10080869;23;20019;-89
2022/08/02 16:07:34;;;;;;;11.30;9.02;;;;;;;;;;10096645;23;20343;-90
2022/08/02 16:16:29;;;;;;;14.95;8.25;;;;;;;;;;10109906;23;20025;-89
2022/08/02 16:21:10;;;;;;;12.52;9.90;;;;;;;;;;10103150;23;20154;-91
2022/08/02 16:25:48;;;;;;;12.65;9.48;;;;;;;;;;10083254;23;20105;-89
2022/08/02 16:30:01;;;;;;;11.73;9.38;;;;;;;;;;10108803;23;20069;-88
2022/08/02 16:34:46;;;;;;;13.23;9.82;;;;;;;;;;10091424;23;20029;-89
2022/08/02 16:54:34;;;;;;;11.52;9.00;;;;;;;;;;9936182;23;20031;-88
2022/08/02 17:04:03;;;;;;;12.38;8.80;;;;;;;;;;10014986;23;20347;-88
2022/08/02 17:08:54;;;;;;;11.77;8.23;;;;;;;;;;10054515;23;20032;-88
2022/08/02 17:13:14;;;;;;;11.35;8.23;;;;;;;;;;10082577;23;20066;-88
2022/08/02 17:17:30;;;;;;;12.63;7.35;;;;;;;;;;10084662;23;20089;-88
2022/08/02 17:26:54;;;;;;;9.10;7.75;;;;;;;;;;9977571;23;20356;-87
2022/08/02 17:31:34;;;;;;;11.33;8.00;;;;;;;;;;10059249;23;20026;-87
2022/08/02 17:36:14;;;;;;;8.77;7.18;;;;;;;;;;10085917;23;20258;-88
2022/08/02 17:40:52;;;;;;;11.77;7.75;;;;;;;;;;10086417;23;20025;-89
2022/08/02 17:50:46;;;;;;;9.93;7.18;;;;;;;;;;10085470;23;20014;-88
2022/08/02 17:54:58;;;;;;;9.95;6.57;;;;;;;;;;10084501;23;20015;-89
2022/08/02 17:59:37;;;;;;;7.93;5.75;;;;;;;;;;10101868;23;20018;-91
2022/08/02 18:09:37;;;;;;;9.25;7.30;;;;;;;;;;10094234;23;20501;-89
2022/08/02 18:13:51;;;;;;;13.48;8.88;;;;;;;;;;10102649;23;20018;-92
2022/08/02 18:18:34;;;;;;;12.57;9.95;;;;;;;;;;10085715;23;20443;-89
2022/08/02 18:23:11;;;;;;;12.55;11.23;;;;;;;;;;10086116;23;20026;-89
2022/08/02 18:27:42;;;;;;;10.95;8.60;;;;;;;;;;10083772;23;20023;-90
2022/08/02 22:28:34;;;;;;;11.90;8.63;;;;;;;;;;9625837;24;20097;-89
2022/08/02 22:49:16;;;;;;;;;;;;;;;;;;;;;
2022/08/02 22:59:53;;;;;;;;;;;;;;;;;;;;;
2022/08/02 23:10:41;;;;;;;11.25;9.90;;;;;;;;;;9762176;24;20094;-88
2022/08/02 23:26:05;;;;;;;13.17;10.23;;;;;;;;;;9854656;24;20031;-88
2022/08/02 23:31:37;;;;;;;10.70;9.48;;;;;;;;;;9853592;24;20409;-89
2022/08/02 23:53:08;;;;;;;9.38;8.23;;;;;;;;;;9599046;24;20031;-88
2022/08/02 23:57:52;;;;;;;;;;;;;;;;;;;;;
